createdAt,value
2022-11-06T00:02:28.407Z,85.75
2022-11-06T00:08:45.871Z,86.82
2022-11-06T00:11:33.300Z,87.50
2022-11-06T00:14:20.476Z,86.82
2022-11-06T00:17:10.097Z,97.88
2022-11-06T00:20:00.335Z,81.57
2022-11-06T00:22:49.124Z,89.35
2022-11-06T00:25:40.341Z,99.32
2022-11-06T00:28:27.456Z,103.78
2022-11-06T00:31:17.790Z,93.90
2022-11-06T00:34:10.425Z,100.22
2022-11-06T00:36:57.506Z,88.40
2022-11-06T00:39:44.685Z,91.82
2022-11-06T00:42:34.353Z,95.45
2022-11-06T00:45:21.566Z,94.47
2022-11-06T00:48:08.596Z,81.30
2022-11-06T00:50:55.833Z,79.72
2022-11-06T00:53:43.994Z,83.45
2022-11-06T00:56:32.529Z,79.28
2022-11-06T00:59:21.780Z,90.53
2022-11-06T01:02:09.125Z,84.22
2022-11-06T01:04:56.355Z,81.82
2022-11-06T01:07:44.880Z,88.38
2022-11-06T01:10:34.190Z,111.72
2022-11-06T01:13:21.273Z,92.97
2022-11-06T01:16:12.446Z,91.70
2022-11-06T01:19:02.112Z,77.95
2022-11-06T01:21:52.915Z,87.22
2022-11-06T01:24:40.199Z,91.00
2022-11-06T01:27:27.777Z,81.05
2022-11-06T01:30:15.043Z,86.82
2022-11-06T01:33:02.482Z,81.68
2022-11-06T01:35:51.031Z,87.07
2022-11-06T01:38:41.782Z,84.78
2022-11-06T01:41:36.730Z,79.88
2022-11-06T01:44:35.920Z,92.82
2022-11-06T01:47:28.732Z,82.97
2022-11-06T01:53:04.918Z,85.15
2022-11-06T01:55:59.020Z,85.35
2022-11-06T01:58:49.072Z,82.75
2022-11-06T02:01:36.191Z,84.65
2022-11-06T02:04:25.274Z,80.93
2022-11-06T02:07:12.685Z,84.20
2022-11-06T02:09:59.751Z,81.97
2022-11-06T02:13:17.847Z,80.80
2022-11-06T02:16:09.589Z,74.68
2022-11-06T02:19:02.464Z,78.72
2022-11-06T02:25:02.780Z,73.38
2022-11-06T02:28:22.786Z,71.10
2022-11-06T02:31:18.790Z,76.32
2022-11-06T02:34:13.610Z,73.68
2022-11-06T02:37:25.055Z,73.18
2022-11-06T02:40:15.394Z,76.43
2022-11-06T02:43:07.996Z,71.18
2022-11-06T02:45:59.472Z,84.20
2022-11-06T02:48:53.485Z,77.15
2022-11-06T02:51:48.946Z,61.75
2022-11-06T02:54:40.319Z,65.57
2022-11-06T02:57:32.111Z,69.78
2022-11-06T03:00:19.392Z,46.80
2022-11-06T03:03:15.598Z,66.68
2022-11-06T03:06:15.679Z,79.18
2022-11-06T03:09:07.549Z,68.22
2022-11-06T03:12:21.051Z,51.47
2022-11-06T03:15:27.712Z,62.83
2022-11-06T03:18:38.526Z,64.22
2022-11-06T03:21:34.709Z,65.75
2022-11-06T03:24:31.367Z,66.97
2022-11-06T03:27:26.830Z,65.75
2022-11-06T03:30:16.681Z,63.63
2022-11-06T03:33:40.541Z,66.07
2022-11-06T03:36:44.577Z,59.30
2022-11-06T03:39:40.550Z,65.13
2022-11-06T03:42:30.463Z,67.32
2022-11-06T03:45:23.258Z,59.35
2022-11-06T03:51:21.130Z,63.97
2022-11-06T03:54:18.045Z,79.70
2022-11-06T03:57:14.065Z,62.03
2022-11-06T04:00:08.677Z,67.07
2022-11-06T04:03:07.101Z,66.07
2022-11-06T04:06:11.601Z,58.65
2022-11-06T04:09:21.561Z,63.25
2022-11-06T04:12:30.616Z,59.35
2022-11-06T04:15:21.889Z,61.28
2022-11-06T04:18:14.289Z,60.15
2022-11-06T04:25:01.385Z,57.83
2022-11-06T04:28:12.777Z,60.42
2022-11-06T04:31:17.231Z,58.35
2022-11-06T04:34:13.521Z,55.92
2022-11-06T04:37:11.172Z,60.42
2022-11-06T04:40:08.724Z,59.45
2022-11-06T04:43:00.950Z,58.25
2022-11-06T04:45:52.139Z,66.72
2022-11-06T04:48:41.019Z,83.05
2022-11-06T04:51:35.630Z,69.78
2022-11-06T04:54:23.035Z,69.07
2022-11-06T04:57:11.022Z,76.90
2022-11-06T05:00:00.460Z,65.13
2022-11-06T05:02:47.557Z,71.65
2022-11-06T05:05:34.656Z,76.20
2022-11-06T05:08:23.954Z,65.38
2022-11-06T05:11:11.036Z,64.43
2022-11-06T05:14:00.222Z,56.65
2022-11-06T05:16:47.300Z,60.70
2022-11-06T05:19:34.422Z,77.32
2022-11-06T05:22:40.104Z,76.65
2022-11-06T05:25:35.815Z,59.72
2022-11-06T05:28:23.002Z,60.88
2022-11-06T05:31:14.768Z,62.92
2022-11-06T05:34:01.848Z,49.40
2022-11-06T05:36:48.935Z,60.83
2022-11-06T05:39:41.793Z,51.83
2022-11-06T05:42:29.239Z,53.03
2022-11-06T05:45:16.430Z,57.70
2022-11-06T05:48:03.801Z,56.03
2022-11-06T05:50:50.943Z,51.47
2022-11-06T05:53:38.562Z,50.60
2022-11-06T05:56:25.656Z,54.95
2022-11-06T05:59:13.814Z,54.83
2022-11-06T06:02:01.156Z,55.30
2022-11-06T06:04:48.320Z,46.53
2022-11-06T06:07:35.415Z,64.63
2022-11-06T06:10:22.498Z,62.33
2022-11-06T06:13:09.630Z,60.22
2022-11-06T06:16:01.610Z,61.92
2022-11-06T06:18:51.820Z,51.53
2022-11-06T06:21:38.943Z,55.22
2022-11-06T06:24:26.168Z,51.85
2022-11-06T06:27:13.255Z,58.97
2022-11-06T06:30:02.928Z,57.05
2022-11-06T06:32:53.514Z,53.60
2022-11-06T06:35:42.853Z,51.85
2022-11-06T06:38:30.108Z,47.75
2022-11-06T06:41:17.293Z,46.80
2022-11-06T06:44:04.538Z,51.88
2022-11-06T06:46:51.559Z,51.50
2022-11-06T06:49:38.633Z,52.83
2022-11-06T06:52:25.696Z,65.28
2022-11-06T06:55:12.866Z,57.63
2022-11-06T06:58:00.870Z,58.22
2022-11-06T07:00:47.977Z,52.20
2022-11-06T07:03:35.108Z,58.38
2022-11-06T07:06:22.612Z,51.22
2022-11-06T07:09:09.717Z,162.60
2022-11-06T07:11:57.706Z,68.50
2022-11-06T07:14:44.862Z,63.83
2022-11-06T07:17:32.056Z,70.15
2022-11-06T07:20:23.597Z,65.93
2022-11-06T07:23:13.467Z,79.07
2022-11-06T07:26:00.889Z,78.15
2022-11-06T07:28:47.947Z,74.40
2022-11-06T07:31:38.041Z,86.45
2022-11-06T07:34:27.310Z,72.93
2022-11-06T07:37:14.358Z,84.85
2022-11-06T07:40:04.787Z,85.25
2022-11-06T07:43:27.751Z,79.47
2022-11-06T07:46:17.966Z,71.50
2022-11-06T07:49:05.082Z,84.43
2022-11-06T07:51:52.482Z,70.55
2022-11-06T07:54:48.267Z,75.07
2022-11-06T07:57:38.202Z,67.30
2022-11-06T08:00:25.302Z,62.50
2022-11-06T08:03:19.169Z,64.43
2022-11-06T08:06:12.649Z,62.38
2022-11-06T08:09:01.845Z,66.63
2022-11-06T08:11:56.249Z,64.57
2022-11-06T08:17:51.742Z,64.97
2022-11-06T08:20:57.364Z,67.32
2022-11-06T08:23:47.394Z,69.45
2022-11-06T08:26:34.615Z,52.45
2022-11-06T08:29:22.159Z,58.92
2022-11-06T08:32:23.663Z,64.95
2022-11-06T08:35:10.918Z,47.00
2022-11-06T08:38:03.389Z,42.80
2022-11-06T08:40:57.899Z,40.85
2022-11-06T08:43:55.214Z,40.17
2022-11-06T08:46:44.438Z,42.85
2022-11-06T08:49:41.667Z,51.60
2022-11-06T08:52:33.929Z,41.88
2022-11-06T08:55:21.563Z,38.00
2022-11-06T08:58:14.413Z,32.22
2022-11-06T09:01:01.844Z,32.88
2022-11-06T09:04:03.516Z,23.85
2022-11-06T09:06:56.462Z,20.23
2022-11-06T09:09:47.983Z,15.45
2022-11-06T09:12:41.030Z,14.32
2022-11-06T09:15:37.502Z,12.02
2022-11-06T09:18:40.906Z,14.15
2022-11-06T09:21:35.715Z,9.82
2022-11-06T09:25:01.454Z,8.77
2022-11-06T09:30:58.317Z,10.57
2022-11-06T09:33:52.016Z,10.02
2022-11-06T09:36:42.235Z,7.95
2022-11-06T09:39:42.522Z,5.65
2022-11-06T09:46:27.056Z,6.18
2022-11-06T09:49:32.076Z,5.88
2022-11-06T09:52:53.095Z,6.03
2022-11-06T09:55:52.370Z,5.03
2022-11-06T09:58:45.796Z,6.75
2022-11-06T10:01:54.468Z,4.82
2022-11-06T10:05:11.408Z,4.53
2022-11-06T10:08:10.314Z,6.53
2022-11-06T10:15:23.853Z,3.80
2022-11-06T10:18:27.814Z,3.57
2022-11-06T10:21:20.760Z,3.65
2022-11-06T10:24:34.328Z,3.28
2022-11-06T10:27:30.517Z,3.22
2022-11-06T10:30:19.497Z,3.70
2022-11-06T10:33:34.500Z,4.78
2022-11-06T10:37:11.845Z,3.92
2022-11-06T10:40:17.369Z,4.05
2022-11-06T10:43:28.817Z,2.80
2022-11-06T10:47:09.307Z,2.88
2022-11-06T10:50:11.403Z,7.10
2022-11-06T10:53:33.759Z,3.05
2022-11-06T10:57:04.308Z,3.70
2022-11-06T10:59:52.650Z,3.88
2022-11-06T11:03:16.257Z,3.22
2022-11-06T11:06:09.679Z,2.55
2022-11-06T11:12:03.434Z,2.60
2022-11-06T11:15:25.889Z,2.97
2022-11-06T11:18:15.292Z,3.10
2022-11-06T11:21:54.668Z,3.67
2022-11-06T11:25:05.585Z,2.63
2022-11-06T11:27:55.325Z,4.30
2022-11-06T11:30:54.713Z,3.05
2022-11-06T11:33:57.970Z,2.80
2022-11-06T11:37:00.266Z,2.33
2022-11-06T11:39:48.281Z,2.45
2022-11-06T11:42:35.366Z,2.83
2022-11-06T11:46:44.589Z,2.17
2022-11-06T11:49:34.152Z,2.30
2022-11-06T11:52:22.320Z,3.00
2022-11-06T11:55:40.418Z,2.78
2022-11-06T11:58:48.025Z,2.35
2022-11-06T12:01:41.946Z,2.50
2022-11-06T12:04:48.295Z,2.50
2022-11-06T12:07:46.474Z,2.75
2022-11-06T12:10:45.848Z,1.70
2022-11-06T12:14:29.505Z,2.05
2022-11-06T12:17:47.402Z,2.28
2022-11-06T12:20:36.517Z,2.13
2022-11-06T12:23:42.348Z,2.55
2022-11-06T12:26:41.274Z,1.88
2022-11-06T12:29:54.204Z,2.40
2022-11-06T12:33:16.176Z,2.40
2022-11-06T12:36:15.526Z,2.65
2022-11-06T12:39:48.521Z,2.47
2022-11-06T12:46:48.723Z,2.10
2022-11-06T12:49:59.539Z,2.47
2022-11-06T12:53:37.131Z,2.45
2022-11-06T12:56:57.679Z,1.70
2022-11-06T12:59:55.134Z,1.88
2022-11-06T13:02:53.884Z,2.15
2022-11-06T13:06:07.793Z,2.30
2022-11-06T13:09:43.190Z,2.08
2022-11-06T13:13:22.336Z,2.05
2022-11-06T13:16:24.532Z,2.83
2022-11-06T13:19:20.613Z,2.55
2022-11-06T13:22:44.517Z,2.05
2022-11-06T13:25:56.942Z,1.95
2022-11-06T13:28:58.860Z,1.90
2022-11-06T13:32:06.453Z,2.03
2022-11-06T13:35:09.333Z,1.92
2022-11-06T13:41:05.808Z,2.10
2022-11-06T13:44:23.145Z,2.03
2022-11-06T13:47:58.271Z,2.38
2022-11-06T13:50:56.111Z,1.83
2022-11-06T13:54:22.981Z,2.15
2022-11-06T13:58:00.719Z,2.05
2022-11-06T14:01:09.296Z,3.67
2022-11-06T14:04:27.226Z,2.50
2022-11-06T14:07:32.232Z,2.55
2022-11-06T14:10:31.482Z,1.88
2022-11-06T14:13:25.564Z,1.83
2022-11-06T14:16:22.105Z,3.88
2022-11-06T14:19:21.688Z,1.90
2022-11-06T14:22:11.170Z,3.22
2022-11-06T14:25:21.096Z,3.22
2022-11-06T14:28:28.740Z,3.00
2022-11-06T14:31:54.322Z,3.42
2022-11-06T14:34:43.105Z,5.07
2022-11-06T14:37:42.629Z,5.45
2022-11-06T14:40:32.798Z,4.65
2022-11-06T14:43:35.366Z,6.50
2022-11-06T14:46:37.519Z,5.07
2022-11-06T14:49:46.721Z,3.53
2022-11-06T14:52:55.695Z,3.15
2022-11-06T14:55:57.232Z,4.20
2022-11-06T14:59:44.317Z,3.22
2022-11-06T15:02:49.352Z,4.00
2022-11-06T15:05:49.584Z,3.20
2022-11-06T15:09:06.627Z,6.28
2022-11-06T15:12:09.527Z,3.20
2022-11-06T15:18:16.084Z,16.77
2022-11-06T15:21:17.533Z,6.45
2022-11-06T15:24:53.622Z,6.78
2022-11-06T15:27:48.220Z,6.57
2022-11-06T15:30:51.764Z,10.05
2022-11-06T15:33:59.516Z,7.80
2022-11-06T15:37:23.499Z,8.82
2022-11-06T15:40:29.647Z,8.02
2022-11-06T15:43:55.123Z,10.80
2022-11-06T15:46:58.934Z,9.52
2022-11-06T15:49:46.160Z,5.45
2022-11-06T15:52:43.068Z,10.80
2022-11-06T15:55:49.968Z,10.65
2022-11-06T15:58:49.382Z,14.23
2022-11-06T16:01:52.502Z,9.52
2022-11-06T16:04:44.562Z,8.68
2022-11-06T16:07:32.021Z,8.93
2022-11-06T16:10:32.686Z,7.75
2022-11-06T16:13:43.588Z,6.45
2022-11-06T16:16:56.768Z,7.22
2022-11-06T16:22:42.077Z,11.30
2022-11-06T16:25:35.604Z,7.43
2022-11-06T16:28:33.980Z,7.13
2022-11-06T16:31:29.145Z,7.72
2022-11-06T16:34:48.577Z,7.13
2022-11-06T16:37:37.977Z,6.15
2022-11-06T16:41:00.766Z,5.28
2022-11-06T16:44:31.875Z,6.93
2022-11-06T16:47:25.733Z,5.72
2022-11-06T16:54:38.079Z,6.65
2022-11-06T16:57:33.450Z,7.63
2022-11-06T17:00:20.697Z,6.53
2022-11-06T17:03:21.503Z,6.28
2022-11-06T17:06:35.619Z,6.47
2022-11-06T17:09:23.002Z,6.57
2022-11-06T17:12:13.237Z,6.68
2022-11-06T17:15:00.424Z,5.82
2022-11-06T17:17:50.358Z,6.97
2022-11-06T17:21:27.469Z,9.18
2022-11-06T17:27:01.380Z,34.38
2022-11-06T17:32:53.129Z,8.73
2022-11-06T17:35:43.270Z,11.35
2022-11-06T17:38:30.637Z,8.80
2022-11-06T17:41:29.935Z,6.45
2022-11-06T17:44:17.586Z,6.72
2022-11-06T17:47:10.583Z,6.93
2022-11-06T17:50:01.248Z,7.20
2022-11-06T17:52:48.898Z,5.65
2022-11-06T17:58:38.452Z,5.97
2022-11-06T18:04:31.279Z,5.55
2022-11-06T18:07:34.807Z,7.33
2022-11-06T18:10:30.734Z,7.65
2022-11-06T18:13:18.318Z,5.60
2022-11-06T18:16:36.598Z,6.18
2022-11-06T18:19:35.649Z,9.65
2022-11-06T18:22:28.189Z,7.45
2022-11-06T18:25:15.332Z,7.75
2022-11-06T18:28:15.499Z,8.65
2022-11-06T18:31:05.984Z,7.55
2022-11-06T18:33:56.300Z,9.65
2022-11-06T18:36:45.947Z,5.60
2022-11-06T18:39:36.272Z,6.30
2022-11-06T18:42:24.848Z,7.00
2022-11-06T18:45:15.325Z,6.65
2022-11-06T18:48:40.173Z,11.82
2022-11-06T18:51:35.545Z,8.15
2022-11-06T19:01:10.899Z,13.57
2022-11-06T19:04:14.015Z,10.70
2022-11-06T19:16:34.025Z,10.73
2022-11-06T19:19:25.401Z,10.38
2022-11-06T19:22:29.843Z,7.40
2022-11-06T19:25:20.638Z,7.90
2022-11-06T19:28:11.683Z,10.15
2022-11-06T19:31:08.650Z,6.47
2022-11-06T19:37:17.381Z,9.87
2022-11-06T19:40:18.363Z,5.95
2022-11-06T19:43:09.843Z,10.88
2022-11-06T19:46:35.867Z,9.38
2022-11-06T19:49:26.693Z,9.55
2022-11-06T19:52:42.552Z,8.68
2022-11-06T19:55:37.993Z,9.45
2022-11-06T19:58:32.439Z,6.95
2022-11-06T20:01:22.799Z,16.98
2022-11-06T20:04:13.443Z,6.95
2022-11-06T20:07:03.899Z,7.80
2022-11-06T20:10:06.100Z,10.10
2022-11-06T20:13:01.220Z,6.85
2022-11-06T20:15:49.877Z,5.88
2022-11-06T20:18:43.978Z,4.82
2022-11-06T20:21:44.868Z,6.38
2022-11-06T20:24:44.612Z,5.82
2022-11-06T20:27:35.396Z,9.82
2022-11-06T20:30:22.701Z,4.97
2022-11-06T20:33:17.671Z,4.90
2022-11-06T20:36:44.962Z,4.53
2022-11-06T20:39:38.886Z,5.65
2022-11-06T20:42:34.174Z,5.65
2022-11-06T20:45:21.949Z,7.28
2022-11-06T20:48:16.804Z,6.97
2022-11-06T20:51:22.365Z,4.97
2022-11-06T20:54:09.620Z,7.57
2022-11-06T20:56:59.954Z,5.93
2022-11-06T21:00:16.487Z,5.50
2022-11-06T21:03:03.867Z,5.30
2022-11-06T21:06:08.631Z,8.95
2022-11-06T21:08:58.778Z,7.88
2022-11-06T21:12:01.135Z,3.28
2022-11-06T21:14:51.374Z,6.10
2022-11-06T21:17:45.576Z,4.10
2022-11-06T21:20:37.961Z,2.70
2022-11-06T21:23:25.311Z,2.60
2022-11-06T21:26:31.667Z,3.30
2022-11-06T21:29:28.299Z,4.18
2022-11-06T21:32:33.350Z,3.38
2022-11-06T21:35:24.008Z,5.85
2022-11-06T21:38:18.463Z,8.32
2022-11-06T21:41:07.600Z,5.15
2022-11-06T21:43:55.476Z,6.88
2022-11-06T21:46:46.182Z,5.03
2022-11-06T21:49:36.597Z,3.00
2022-11-06T21:52:45.365Z,5.30
2022-11-06T21:55:54.902Z,3.05
2022-11-06T21:58:47.192Z,3.10
2022-11-06T22:02:28.159Z,3.72
2022-11-06T22:05:18.273Z,3.65
2022-11-06T22:08:05.912Z,3.10
2022-11-06T22:10:53.181Z,4.60
2022-11-06T22:13:40.998Z,3.65
2022-11-06T22:16:31.053Z,4.55
2022-11-06T22:19:24.902Z,4.53
2022-11-06T22:22:14.885Z,2.90
2022-11-06T22:25:02.358Z,2.67
2022-11-06T22:27:58.192Z,4.95
2022-11-06T22:30:48.109Z,4.07
2022-11-06T22:33:35.890Z,3.33
2022-11-06T22:36:29.167Z,1.90
2022-11-06T22:39:19.294Z,3.72
2022-11-06T22:42:06.492Z,3.63
2022-11-06T22:44:53.957Z,5.68
2022-11-06T22:47:41.229Z,2.17
2022-11-06T22:50:33.157Z,2.78
2022-11-06T22:53:20.691Z,4.43
2022-11-06T22:56:14.532Z,1.95
2022-11-06T22:59:13.446Z,3.95
2022-11-06T23:02:00.561Z,3.30
2022-11-06T23:07:59.521Z,2.75
2022-11-06T23:10:59.151Z,4.65
2022-11-06T23:13:53.488Z,1.65
2022-11-06T23:17:01.699Z,2.33
2022-11-06T23:20:03.887Z,4.75
2022-11-06T23:22:51.989Z,2.22
2022-11-06T23:25:48.987Z,1.73
2022-11-06T23:28:39.381Z,3.13
2022-11-06T23:31:37.030Z,3.25
2022-11-06T23:34:27.572Z,2.38
2022-11-06T23:37:15.120Z,1.77
2022-11-06T23:40:13.405Z,1.60
2022-11-06T23:43:03.884Z,2.47
2022-11-06T23:45:51.514Z,2.83
2022-11-06T23:48:46.151Z,1.85
2022-11-06T23:51:38.522Z,3.42
2022-11-06T23:54:28.488Z,2.05
2022-11-06T23:57:20.472Z,1.73
